createdAt,value
2018-01-15T00:00:29.282Z,78.2
2018-01-15T00:01:29.941Z,78.0
2018-01-15T00:02:30.599Z,78.1
2018-01-15T00:03:31.254Z,78.2
2018-01-15T00:04:31.912Z,78.4
2018-01-15T00:05:32.571Z,78.6
2018-01-15T00:06:33.228Z,78.5
2018-01-15T00:07:33.886Z,78.8
2018-01-15T00:08:34.543Z,78.7
2018-01-15T00:09:35.199Z,79.3
2018-01-15T00:10:35.857Z,79.3
2018-01-15T00:11:36.514Z,79.6
2018-01-15T00:12:37.169Z,79.7
2018-01-15T00:13:37.825Z,79.8
2018-01-15T00:14:38.483Z,79.6
2018-01-15T00:15:39.140Z,79.5
2018-01-15T00:16:39.797Z,79.8
2018-01-15T00:17:40.454Z,80.2
2018-01-15T00:18:41.160Z,79.9
2018-01-15T00:19:41.817Z,79.8
2018-01-15T00:20:42.473Z,80.5
2018-01-15T00:21:43.130Z,80.5
2018-01-15T00:22:43.787Z,80.5
2018-01-15T00:23:44.493Z,80.5
2018-01-15T00:24:45.151Z,80.7
2018-01-15T00:25:45.809Z,80.8
2018-01-15T00:26:46.464Z,80.6
2018-01-15T00:27:47.121Z,80.8
2018-01-15T00:28:47.778Z,80.7
2018-01-15T00:29:48.435Z,80.8
2018-01-15T00:30:49.092Z,81.1
2018-01-15T00:31:49.783Z,81.2
2018-01-15T00:32:50.439Z,81.2
2018-01-15T00:33:51.095Z,81.1
2018-01-15T00:34:51.752Z,80.9
2018-01-15T00:35:52.409Z,81.3
2018-01-15T00:36:53.100Z,81.1
2018-01-15T00:37:53.758Z,81.3
2018-01-15T00:38:54.421Z,81.2
2018-01-15T00:39:55.073Z,81.3
2018-01-15T00:40:55.730Z,81.5
2018-01-15T00:41:56.387Z,81.3
2018-01-15T00:42:57.045Z,81.1
2018-01-15T00:43:57.700Z,80.9
2018-01-15T00:44:58.356Z,81.1
2018-01-15T00:45:59.012Z,80.9
2018-01-15T00:46:59.667Z,80.9
2018-01-15T00:48:00.327Z,81.1
2018-01-15T00:49:00.983Z,80.9
2018-01-15T00:50:01.640Z,80.7
2018-01-15T00:51:02.297Z,80.8
2018-01-15T00:52:02.952Z,80.9
2018-01-15T00:53:03.609Z,80.7
2018-01-15T00:54:04.266Z,80.8
2018-01-15T00:55:04.923Z,80.8
2018-01-15T00:56:05.580Z,81.3
2018-01-15T00:57:06.234Z,81.4
2018-01-15T00:58:06.892Z,81.3
2018-01-15T00:59:07.549Z,81.0
2018-01-15T01:00:08.205Z,81.1
2018-01-15T01:01:08.860Z,81.4
2018-01-15T01:02:09.517Z,81.3
2018-01-15T01:03:10.173Z,81.2
2018-01-15T01:04:10.835Z,81.2
2018-01-15T01:05:11.487Z,81.2
2018-01-15T01:06:12.143Z,81.4
2018-01-15T01:07:12.800Z,81.2
2018-01-15T01:08:13.456Z,81.4
2018-01-15T01:09:14.114Z,81.5
2018-01-15T01:10:14.769Z,81.4
2018-01-15T01:11:15.425Z,81.6
2018-01-15T01:12:16.081Z,81.5
2018-01-15T01:13:16.739Z,81.5
2018-01-15T01:14:17.434Z,81.7
2018-01-15T01:15:18.088Z,81.7
2018-01-15T01:16:18.743Z,81.7
2018-01-15T01:17:19.401Z,81.5
2018-01-15T01:18:20.056Z,82.0
2018-01-15T01:19:20.714Z,81.6
2018-01-15T01:20:21.406Z,81.6
2018-01-15T01:21:22.062Z,82.3
2018-01-15T01:22:22.719Z,82.0
2018-01-15T01:23:23.375Z,81.9
2018-01-15T01:24:24.032Z,81.9
2018-01-15T01:25:24.688Z,82.5
2018-01-15T01:26:25.381Z,82.6
2018-01-15T01:27:26.038Z,82.3
2018-01-15T01:28:26.694Z,82.2
2018-01-15T01:29:27.350Z,82.0
2018-01-15T01:30:28.014Z,82.5
2018-01-15T01:31:28.664Z,82.6
2018-01-15T01:32:29.355Z,82.5
2018-01-15T01:33:30.013Z,82.6
2018-01-15T01:34:30.670Z,82.8
2018-01-15T01:35:31.326Z,82.4
2018-01-15T01:36:31.982Z,82.7
2018-01-15T01:37:32.637Z,82.2
2018-01-15T01:38:33.293Z,82.2
2018-01-15T01:39:33.951Z,82.5
2018-01-15T01:40:34.608Z,82.9
2018-01-15T01:41:35.264Z,82.5
2018-01-15T01:42:35.921Z,82.6
2018-01-15T01:43:36.578Z,82.6
2018-01-15T01:44:37.236Z,82.8
2018-01-15T01:45:37.928Z,83.0
2018-01-15T01:46:38.584Z,82.9
2018-01-15T01:47:39.241Z,82.7
2018-01-15T01:48:39.897Z,83.0
2018-01-15T01:49:40.554Z,83.1
2018-01-15T01:50:41.210Z,83.1
2018-01-15T01:51:41.872Z,82.8
2018-01-15T01:52:42.559Z,83.2
2018-01-15T01:53:43.215Z,83.2
2018-01-15T01:54:43.869Z,83.1
2018-01-15T01:55:44.523Z,83.8
2018-01-15T01:56:45.178Z,83.3
2018-01-15T01:57:45.833Z,83.3
2018-01-15T01:58:46.488Z,83.8
2018-01-15T01:59:47.142Z,83.7
2018-01-15T02:00:47.799Z,83.3
2018-01-15T02:01:48.454Z,83.5
2018-01-15T02:02:49.109Z,83.7
2018-01-15T02:03:49.764Z,84.0
2018-01-15T02:04:50.420Z,83.7
2018-01-15T02:05:51.076Z,83.7
2018-01-15T02:06:51.734Z,83.7
2018-01-15T02:07:52.389Z,83.6
2018-01-15T02:08:53.117Z,83.5
2018-01-15T02:09:53.703Z,83.4
2018-01-15T02:10:54.358Z,83.6
2018-01-15T02:11:55.014Z,83.4
2018-01-15T02:12:55.668Z,83.6
2018-01-15T02:13:56.327Z,83.6
2018-01-15T02:14:56.987Z,83.7
2018-01-15T02:15:57.641Z,83.9
2018-01-15T02:16:58.294Z,83.7
2018-01-15T02:17:58.949Z,83.6
2018-01-15T02:18:59.605Z,83.6
2018-01-15T02:20:00.261Z,83.7
2018-01-15T02:21:00.917Z,83.9
2018-01-15T02:22:01.578Z,83.9
2018-01-15T02:23:02.228Z,83.6
2018-01-15T02:24:02.884Z,84.3
2018-01-15T02:25:03.541Z,84.0
2018-01-15T02:26:04.231Z,83.6
2018-01-15T02:27:04.884Z,84.0
2018-01-15T02:28:05.539Z,84.0
2018-01-15T02:29:06.194Z,83.6
2018-01-15T02:30:06.851Z,83.6
2018-01-15T02:31:07.507Z,83.6
2018-01-15T02:32:08.162Z,83.4
2018-01-15T02:33:08.817Z,83.5
2018-01-15T02:34:09.472Z,83.9
2018-01-15T02:35:10.129Z,83.9
2018-01-15T02:36:10.785Z,84.1
2018-01-15T02:37:11.440Z,84.2
2018-01-15T02:38:12.098Z,84.3
2018-01-15T02:39:12.752Z,84.1
2018-01-15T02:40:13.410Z,84.3
2018-01-15T02:41:14.066Z,84.0
2018-01-15T02:42:14.722Z,84.2
2018-01-15T02:43:15.378Z,84.0
2018-01-15T02:44:16.035Z,84.2
2018-01-15T02:45:16.690Z,84.0
2018-01-15T02:46:17.346Z,84.1
2018-01-15T02:47:18.003Z,84.0
2018-01-15T02:48:18.659Z,84.2
2018-01-15T02:49:19.316Z,84.1
2018-01-15T02:50:19.969Z,84.2
2018-01-15T02:51:20.626Z,85.0
2018-01-15T02:52:21.281Z,84.6
2018-01-15T02:53:21.937Z,84.9
2018-01-15T02:54:22.594Z,84.9
2018-01-15T02:55:23.250Z,84.7
2018-01-15T02:56:23.907Z,84.4
2018-01-15T02:57:24.561Z,84.6
2018-01-15T02:58:25.218Z,84.4
2018-01-15T02:59:25.874Z,84.6
2018-01-15T03:00:26.531Z,84.9
2018-01-15T03:01:27.186Z,84.9
2018-01-15T03:02:27.843Z,84.2
2018-01-15T03:03:28.499Z,84.1
2018-01-15T03:04:29.155Z,84.1
2018-01-15T03:05:29.811Z,84.9
2018-01-15T03:06:30.467Z,84.7
2018-01-15T03:07:31.123Z,84.6
2018-01-15T03:08:31.779Z,84.5
2018-01-15T03:09:32.436Z,84.7
2018-01-15T03:10:33.342Z,84.8
2018-01-15T03:11:33.999Z,84.5
2018-01-15T03:12:34.657Z,84.4
2018-01-15T03:13:35.313Z,84.7
2018-01-15T03:14:35.970Z,84.7
2018-01-15T03:15:36.625Z,84.6
2018-01-15T03:16:37.282Z,84.9
2018-01-15T03:17:37.940Z,84.6
2018-01-15T03:18:38.596Z,84.6
2018-01-15T03:19:39.252Z,84.5
2018-01-15T03:20:39.908Z,84.6
2018-01-15T03:21:40.564Z,84.6
2018-01-15T03:22:41.220Z,84.8
2018-01-15T03:23:41.876Z,84.6
2018-01-15T03:24:42.574Z,84.5
2018-01-15T03:25:43.225Z,84.6
2018-01-15T03:26:43.882Z,84.5
2018-01-15T03:27:44.540Z,84.7
2018-01-15T03:28:45.233Z,84.9
2018-01-15T03:29:45.888Z,84.8
2018-01-15T03:30:46.544Z,84.9
2018-01-15T03:31:47.204Z,84.6
2018-01-15T03:32:47.890Z,84.8
2018-01-15T03:33:48.544Z,84.2
2018-01-15T03:34:49.198Z,84.7
2018-01-15T03:35:49.904Z,84.2
2018-01-15T03:36:50.557Z,84.2
2018-01-15T03:37:51.212Z,84.2
2018-01-15T03:38:51.867Z,84.0
2018-01-15T03:39:52.523Z,83.8
2018-01-15T03:40:53.177Z,84.2
2018-01-15T03:41:53.831Z,84.2
2018-01-15T03:42:54.487Z,84.0
2018-01-15T03:43:55.142Z,84.1
2018-01-15T03:44:55.798Z,83.8
2018-01-15T03:45:56.454Z,83.8
2018-01-15T03:46:57.110Z,83.9
2018-01-15T03:47:57.766Z,84.2
2018-01-15T03:48:58.421Z,84.1
2018-01-15T03:49:59.112Z,84.1
2018-01-15T03:50:59.766Z,84.0
2018-01-15T03:52:00.422Z,83.9
2018-01-15T03:53:01.075Z,83.8
2018-01-15T03:54:01.731Z,84.0
2018-01-15T03:55:02.387Z,84.1
2018-01-15T03:56:03.045Z,84.0
2018-01-15T03:57:03.700Z,84.3
2018-01-15T03:58:04.355Z,84.2
2018-01-15T03:59:05.011Z,84.1
2018-01-15T04:00:05.667Z,84.2
2018-01-15T04:01:06.322Z,84.2
2018-01-15T04:02:06.977Z,84.2
2018-01-15T04:03:07.633Z,84.2
2018-01-15T04:04:08.287Z,83.8
2018-01-15T04:05:08.945Z,84.2
2018-01-15T04:06:09.602Z,84.3
2018-01-15T04:07:10.293Z,84.2
2018-01-15T04:08:10.984Z,84.0
2018-01-15T04:09:11.639Z,84.2
2018-01-15T04:10:12.294Z,84.8
2018-01-15T04:11:12.999Z,84.7
2018-01-15T04:12:13.688Z,84.8
2018-01-15T04:13:14.343Z,84.8
2018-01-15T04:14:14.996Z,84.6
2018-01-15T04:15:15.652Z,84.5
2018-01-15T04:16:16.311Z,84.5
2018-01-15T04:17:16.964Z,84.9
2018-01-15T04:18:17.619Z,84.9
2018-01-15T04:19:18.274Z,84.7
2018-01-15T04:20:18.930Z,84.5
2018-01-15T04:21:19.584Z,84.6
2018-01-15T04:22:20.275Z,84.7
2018-01-15T04:23:20.930Z,84.5
2018-01-15T04:24:21.585Z,84.7
2018-01-15T04:25:22.240Z,84.8
2018-01-15T04:26:22.894Z,84.7
2018-01-15T04:27:23.549Z,84.7
2018-01-15T04:28:24.205Z,84.7
2018-01-15T04:29:24.862Z,84.7
2018-01-15T04:30:25.517Z,84.5
2018-01-15T04:31:26.172Z,84.6
2018-01-15T04:32:26.828Z,84.4
2018-01-15T04:33:27.484Z,84.3
2018-01-15T04:34:28.140Z,84.8
2018-01-15T04:35:28.834Z,84.4
2018-01-15T04:36:29.492Z,84.4
2018-01-15T04:37:30.155Z,84.4
2018-01-15T04:38:30.806Z,84.8
2018-01-15T04:39:31.462Z,84.7
2018-01-15T04:40:32.119Z,84.5
2018-01-15T04:41:32.775Z,84.7
2018-01-15T04:42:33.432Z,84.5
2018-01-15T04:43:34.088Z,84.9
2018-01-15T04:44:34.780Z,84.9
2018-01-15T04:45:35.436Z,84.7
2018-01-15T04:46:36.092Z,84.7
2018-01-15T04:47:36.749Z,84.9
2018-01-15T04:48:37.406Z,84.7
2018-01-15T04:49:38.063Z,84.7
2018-01-15T04:50:38.718Z,84.7
2018-01-15T04:51:39.375Z,84.7
2018-01-15T04:52:40.032Z,84.9
2018-01-15T04:53:40.688Z,84.6
2018-01-15T04:54:41.380Z,84.7
2018-01-15T04:55:42.035Z,84.7
2018-01-15T04:56:42.690Z,84.5
2018-01-15T04:57:43.346Z,84.7
2018-01-15T04:58:44.000Z,84.2
2018-01-15T04:59:44.657Z,84.1
2018-01-15T05:00:45.309Z,83.9
2018-01-15T05:01:45.964Z,84.2
2018-01-15T05:02:46.620Z,84.0
2018-01-15T05:03:47.274Z,83.8
2018-01-15T05:04:47.933Z,83.7
2018-01-15T05:05:48.584Z,83.7
2018-01-15T05:06:49.289Z,83.4
2018-01-15T05:07:49.946Z,83.6
2018-01-15T05:08:50.599Z,83.3
2018-01-15T05:09:51.253Z,83.5
2018-01-15T05:10:51.910Z,83.4
2018-01-15T05:11:52.632Z,83.5
2018-01-15T05:12:53.218Z,83.6
2018-01-15T05:13:53.906Z,83.6
2018-01-15T05:14:54.561Z,83.6
2018-01-15T05:15:55.216Z,83.7
2018-01-15T05:16:55.871Z,83.5
2018-01-15T05:17:56.563Z,84.0
2018-01-15T05:18:57.221Z,84.2
2018-01-15T05:19:57.875Z,84.3
2018-01-15T05:20:58.532Z,83.5
2018-01-15T05:21:59.189Z,83.6
2018-01-15T05:22:59.850Z,83.6
2018-01-15T05:24:00.501Z,83.8
2018-01-15T05:25:01.157Z,83.5
2018-01-15T05:26:01.814Z,83.5
2018-01-15T05:27:02.470Z,82.8
2018-01-15T05:28:03.126Z,82.3
2018-01-15T05:29:03.783Z,82.5
2018-01-15T05:30:04.438Z,82.3
2018-01-15T05:31:05.095Z,82.3
2018-01-15T05:32:05.790Z,82.1
2018-01-15T05:33:06.445Z,82.1
2018-01-15T05:34:07.102Z,81.6
2018-01-15T05:35:07.760Z,81.1
2018-01-15T05:36:08.417Z,81.2
2018-01-15T05:37:09.109Z,80.9
2018-01-15T05:38:09.765Z,80.8
2018-01-15T05:39:10.421Z,80.2
2018-01-15T05:40:11.111Z,80.4
2018-01-15T05:41:11.767Z,80.6
2018-01-15T05:42:12.422Z,80.0
2018-01-15T05:43:13.078Z,79.7
2018-01-15T05:44:13.733Z,80.0
2018-01-15T05:45:14.391Z,80.0
2018-01-15T05:46:15.047Z,79.4
2018-01-15T05:47:15.703Z,79.6
2018-01-15T05:48:16.358Z,79.3
2018-01-15T05:49:17.016Z,79.7
2018-01-15T05:50:17.671Z,79.5
2018-01-15T05:51:18.327Z,79.4
2018-01-15T05:52:18.984Z,79.5
2018-01-15T05:53:19.641Z,79.3
2018-01-15T05:54:20.296Z,78.7
2018-01-15T05:55:20.952Z,78.9
2018-01-15T05:56:21.608Z,78.8
2018-01-15T05:57:22.265Z,78.7
2018-01-15T05:58:22.921Z,78.6
2018-01-15T05:59:23.578Z,78.8
2018-01-15T06:00:24.234Z,78.6
2018-01-15T06:01:24.892Z,78.6
2018-01-15T06:02:25.549Z,78.5
2018-01-15T06:03:26.206Z,78.5
2018-01-15T06:04:26.863Z,78.4
2018-01-15T06:05:27.524Z,78.6
2018-01-15T06:06:28.211Z,78.3
2018-01-15T06:07:28.869Z,78.5
2018-01-15T06:08:29.560Z,78.6
2018-01-15T06:09:30.217Z,78.7
2018-01-15T06:10:30.875Z,78.6
2018-01-15T06:11:31.533Z,78.6
2018-01-15T06:12:32.192Z,78.6
2018-01-15T06:13:32.850Z,78.6
2018-01-15T06:14:33.507Z,78.7
2018-01-15T06:15:34.164Z,78.7
2018-01-15T06:16:34.821Z,78.9
2018-01-15T06:17:35.478Z,79.2
2018-01-15T06:18:36.137Z,79.4
2018-01-15T06:19:36.792Z,79.1
2018-01-15T06:20:37.451Z,79.0
2018-01-15T06:21:38.144Z,79.3
2018-01-15T06:22:38.801Z,79.3
2018-01-15T06:23:39.457Z,79.3
2018-01-15T06:24:40.116Z,79.3
2018-01-15T06:25:40.774Z,79.3
2018-01-15T06:26:41.433Z,79.3
2018-01-15T06:27:42.090Z,79.6
2018-01-15T06:28:42.746Z,79.3
2018-01-15T06:29:43.408Z,79.6
2018-01-15T06:30:44.059Z,79.3
2018-01-15T06:31:44.721Z,79.5
2018-01-15T06:32:45.374Z,79.8
2018-01-15T06:33:46.068Z,79.6
2018-01-15T06:34:46.725Z,79.6
2018-01-15T06:35:47.382Z,79.6
2018-01-15T06:36:48.040Z,79.6
2018-01-15T06:37:48.698Z,80.1
2018-01-15T06:38:49.357Z,80.0
2018-01-15T06:39:50.014Z,79.7
2018-01-15T06:40:50.672Z,80.1
2018-01-15T06:41:51.329Z,80.1
2018-01-15T06:42:51.985Z,80.0
2018-01-15T06:43:52.642Z,80.3
2018-01-15T06:44:53.300Z,80.6
2018-01-15T06:45:53.959Z,80.5
2018-01-15T06:46:54.614Z,80.2
2018-01-15T06:47:55.270Z,80.7
2018-01-15T06:48:55.926Z,80.7
2018-01-15T06:49:56.583Z,80.6
2018-01-15T06:50:57.241Z,81.1
2018-01-15T06:51:57.897Z,81.1
2018-01-15T06:52:58.556Z,81.3
2018-01-15T06:53:59.219Z,81.4
2018-01-15T06:54:59.872Z,81.3
2018-01-15T06:56:00.528Z,81.3
2018-01-15T06:57:01.188Z,81.0
2018-01-15T06:58:01.842Z,81.3
2018-01-15T06:59:02.536Z,81.4
2018-01-15T07:00:03.195Z,81.6
2018-01-15T07:01:03.853Z,81.4
2018-01-15T07:02:04.511Z,82.2
2018-01-15T07:03:05.169Z,81.9
2018-01-15T07:04:05.825Z,82.1
2018-01-15T07:05:06.481Z,82.3
2018-01-15T07:06:07.138Z,82.3
2018-01-15T07:07:07.800Z,82.1
2018-01-15T07:08:08.452Z,82.1
2018-01-15T07:09:09.110Z,82.2
2018-01-15T07:10:09.768Z,82.1
2018-01-15T07:11:10.425Z,82.3
2018-01-15T07:12:11.083Z,82.2
2018-01-15T07:13:11.740Z,82.3
2018-01-15T07:14:12.398Z,82.1
2018-01-15T07:15:13.058Z,82.4
2018-01-15T07:16:13.752Z,82.3
2018-01-15T07:17:14.455Z,82.2
2018-01-15T07:18:15.068Z,82.3
2018-01-15T07:19:15.763Z,81.8
2018-01-15T07:20:16.421Z,81.7
2018-01-15T07:21:17.079Z,82.0
2018-01-15T07:22:17.736Z,81.9
2018-01-15T07:23:18.395Z,82.3
2018-01-15T07:24:19.055Z,82.0
2018-01-15T07:25:19.714Z,82.3
2018-01-15T07:26:20.373Z,82.4
2018-01-15T07:27:21.033Z,82.1
2018-01-15T07:28:21.690Z,82.1
2018-01-15T07:29:22.348Z,81.8
2018-01-15T07:30:23.010Z,81.9
2018-01-15T07:31:23.709Z,81.6
2018-01-15T07:32:24.361Z,81.6
2018-01-15T07:33:25.020Z,81.7
2018-01-15T07:34:25.677Z,81.7
2018-01-15T07:35:26.335Z,81.6
2018-01-15T07:36:26.995Z,81.7
2018-01-15T07:37:27.654Z,81.6
2018-01-15T07:38:28.312Z,81.6
2018-01-15T07:39:28.973Z,81.8
2018-01-15T07:40:29.634Z,81.8
2018-01-15T07:41:30.295Z,81.6
2018-01-15T07:42:30.954Z,81.6
2018-01-15T07:43:31.613Z,81.6
2018-01-15T07:44:32.271Z,82.1
2018-01-15T07:45:32.931Z,81.5
2018-01-15T07:46:33.594Z,81.5
2018-01-15T07:47:34.251Z,81.8
2018-01-15T07:48:34.915Z,81.2
2018-01-15T07:49:35.575Z,81.2
2018-01-15T07:50:36.233Z,81.3
2018-01-15T07:51:36.891Z,81.4
2018-01-15T07:52:37.552Z,81.2
2018-01-15T07:53:38.214Z,81.3
2018-01-15T07:54:38.875Z,81.1
2018-01-15T07:55:39.537Z,81.3
2018-01-15T07:56:40.196Z,81.3
2018-01-15T07:57:40.857Z,81.3
2018-01-15T07:58:41.520Z,81.2
2018-01-15T07:59:42.177Z,81.2
2018-01-15T08:00:42.837Z,80.9
2018-01-15T08:01:43.496Z,81.5
2018-01-15T08:02:44.157Z,81.3
2018-01-15T08:03:44.853Z,81.3
2018-01-15T08:04:45.513Z,81.0
2018-01-15T08:05:46.173Z,81.4
2018-01-15T08:06:46.832Z,81.4
2018-01-15T08:07:47.495Z,81.1
2018-01-15T08:08:48.191Z,81.1
2018-01-15T08:09:48.853Z,81.1
2018-01-15T08:10:49.514Z,81.0
2018-01-15T08:11:50.174Z,80.9
2018-01-15T08:12:50.834Z,81.2
2018-01-15T08:13:51.496Z,80.8
2018-01-15T08:14:52.157Z,81.4
2018-01-15T08:15:52.857Z,81.2
2018-01-15T08:16:53.514Z,81.0
2018-01-15T08:17:54.211Z,80.6
2018-01-15T08:18:54.873Z,81.1
2018-01-15T08:19:55.533Z,80.9
2018-01-15T08:20:56.192Z,81.2
2018-01-15T08:21:56.851Z,80.6
2018-01-15T08:22:57.511Z,80.8
2018-01-15T08:23:58.172Z,80.6
2018-01-15T08:24:58.834Z,80.8
2018-01-15T08:25:59.496Z,80.8
2018-01-15T08:27:00.156Z,80.8
2018-01-15T08:28:00.816Z,80.7
2018-01-15T08:29:01.475Z,80.7
2018-01-15T08:30:02.173Z,80.8
2018-01-15T08:31:02.841Z,80.8
2018-01-15T08:32:03.493Z,80.9
2018-01-15T08:33:04.157Z,80.9
2018-01-15T08:34:04.814Z,80.8
2018-01-15T08:35:05.474Z,80.9
2018-01-15T08:36:06.134Z,80.9
2018-01-15T08:37:06.794Z,80.8
2018-01-15T08:38:07.453Z,80.7
2018-01-15T08:39:08.151Z,81.2
2018-01-15T08:40:08.811Z,80.9
2018-01-15T08:41:09.521Z,81.3
2018-01-15T08:42:10.136Z,80.9
2018-01-15T08:43:10.795Z,80.9
2018-01-15T08:44:11.455Z,81.0
2018-01-15T08:45:12.115Z,81.2
2018-01-15T08:46:12.776Z,81.3
2018-01-15T08:47:13.437Z,81.1
2018-01-15T08:48:14.095Z,81.5
2018-01-15T08:49:14.755Z,81.1
2018-01-15T08:50:15.450Z,81.1
2018-01-15T08:51:16.112Z,81.2
2018-01-15T08:52:16.771Z,81.3
2018-01-15T08:53:17.431Z,81.3
2018-01-15T08:54:18.091Z,81.1
2018-01-15T08:55:18.754Z,81.3
2018-01-15T08:56:19.414Z,81.3
2018-01-15T08:57:20.077Z,81.1
2018-01-15T08:58:20.740Z,81.0
2018-01-15T08:59:21.397Z,81.4
2018-01-15T09:00:22.059Z,81.2
2018-01-15T09:01:22.720Z,81.5
2018-01-15T09:02:23.381Z,81.2
2018-01-15T09:03:24.041Z,81.3
2018-01-15T09:04:24.701Z,81.4
2018-01-15T09:05:25.361Z,81.3
2018-01-15T09:06:26.023Z,81.0
2018-01-15T09:07:26.685Z,81.3
2018-01-15T09:08:27.347Z,81.2
2018-01-15T09:09:28.044Z,81.2
2018-01-15T09:10:28.706Z,81.3
2018-01-15T09:11:29.366Z,81.3
2018-01-15T09:12:30.063Z,81.3
2018-01-15T09:13:30.723Z,81.1
2018-01-15T09:14:31.433Z,81.3
2018-01-15T09:15:32.095Z,81.3
2018-01-15T09:16:32.760Z,81.2
2018-01-15T09:17:33.414Z,81.3
2018-01-15T09:18:34.073Z,81.2
2018-01-15T09:19:34.734Z,81.2
2018-01-15T09:20:35.395Z,81.0
2018-01-15T09:21:36.057Z,81.2
2018-01-15T09:22:36.719Z,80.7
2018-01-15T09:23:37.379Z,80.6
2018-01-15T09:24:38.039Z,80.4
2018-01-15T09:25:38.701Z,80.5
2018-01-15T09:26:39.361Z,80.6
2018-01-15T09:27:40.023Z,80.4
2018-01-15T09:28:40.684Z,80.4
2018-01-15T09:29:41.344Z,80.4
2018-01-15T09:30:42.015Z,80.2
2018-01-15T09:31:42.664Z,79.9
2018-01-15T09:32:43.325Z,80.6
2018-01-15T09:33:43.988Z,80.0
2018-01-15T09:34:44.651Z,80.2
2018-01-15T09:35:45.312Z,80.1
2018-01-15T09:36:45.973Z,80.2
2018-01-15T09:37:46.635Z,80.1
2018-01-15T09:38:47.296Z,79.4
2018-01-15T09:39:47.957Z,79.4
2018-01-15T09:40:48.617Z,79.4
2018-01-15T09:41:49.278Z,79.5
2018-01-15T09:42:49.939Z,78.8
2018-01-15T09:43:50.606Z,78.9
2018-01-15T09:44:51.350Z,78.8
2018-01-15T09:45:52.043Z,78.9
2018-01-15T09:46:52.706Z,78.7
2018-01-15T09:47:53.368Z,78.4
2018-01-15T09:48:54.030Z,78.7
2018-01-15T09:49:54.690Z,78.4
2018-01-15T09:50:55.352Z,78.4
2018-01-15T09:51:56.013Z,78.4
2018-01-15T09:52:56.674Z,77.7
2018-01-15T09:53:57.337Z,77.9
2018-01-15T09:54:57.997Z,77.8
2018-01-15T09:55:58.659Z,77.3
2018-01-15T09:56:59.321Z,77.6
2018-01-15T09:57:59.984Z,77.2
2018-01-15T09:59:00.648Z,77.4
2018-01-15T10:00:01.308Z,76.8
2018-01-15T10:01:01.969Z,76.2
2018-01-15T10:02:02.632Z,76.2
2018-01-15T10:03:03.294Z,76.4
2018-01-15T10:04:03.957Z,76.3
2018-01-15T10:05:04.619Z,76.4
2018-01-15T10:06:05.314Z,75.8
2018-01-15T10:07:05.976Z,76.1
2018-01-15T10:08:06.638Z,76.1
2018-01-15T10:09:07.351Z,76.4
2018-01-15T10:10:07.995Z,75.8
2018-01-15T10:11:08.657Z,76.1
2018-01-15T10:12:09.321Z,76.2
2018-01-15T10:13:10.016Z,76.8
2018-01-15T10:14:10.683Z,76.3
2018-01-15T10:15:11.347Z,75.9
2018-01-15T10:16:12.051Z,76.1
2018-01-15T10:17:12.711Z,75.7
2018-01-15T10:18:13.373Z,75.9
2018-01-15T10:19:14.035Z,75.5
2018-01-15T10:20:14.697Z,75.0
2018-01-15T10:21:15.359Z,75.1
2018-01-15T10:22:16.020Z,75.0
2018-01-15T10:23:16.682Z,75.5
2018-01-15T10:24:17.344Z,75.2
2018-01-15T10:25:18.005Z,75.5
2018-01-15T10:26:18.667Z,75.0
2018-01-15T10:27:19.332Z,75.1
2018-01-15T10:28:19.992Z,75.1
2018-01-15T10:29:20.654Z,75.3
2018-01-15T10:30:21.315Z,75.4
2018-01-15T10:31:21.978Z,75.1
2018-01-15T10:32:22.640Z,75.5
2018-01-15T10:33:23.303Z,75.7
2018-01-15T10:34:23.964Z,75.3
2018-01-15T10:35:24.627Z,75.1
2018-01-15T10:36:25.290Z,75.1
2018-01-15T10:37:25.954Z,75.1
2018-01-15T10:38:26.624Z,74.8
2018-01-15T10:39:27.280Z,74.3
2018-01-15T10:40:27.941Z,74.4
2018-01-15T10:41:28.603Z,74.4
2018-01-15T10:42:29.266Z,74.5
2018-01-15T10:43:29.929Z,74.7
2018-01-15T10:44:30.591Z,74.8
2018-01-15T10:45:31.288Z,74.1
2018-01-15T10:46:31.950Z,74.1
2018-01-15T10:47:32.614Z,74.3
2018-01-15T10:48:33.276Z,73.8
2018-01-15T10:49:33.942Z,73.7
2018-01-15T10:50:34.605Z,73.6
2018-01-15T10:51:35.324Z,73.5
2018-01-15T10:52:35.960Z,73.8
2018-01-15T10:53:36.623Z,73.4
2018-01-15T10:54:37.286Z,73.5
2018-01-15T10:55:37.948Z,72.7
2018-01-15T10:56:38.611Z,72.8
2018-01-15T10:57:39.277Z,72.9
2018-01-15T10:58:39.943Z,72.8
2018-01-15T10:59:40.600Z,73.1
2018-01-15T11:00:41.261Z,73.3
2018-01-15T11:01:41.927Z,73.3
2018-01-15T11:02:42.588Z,73.5
2018-01-15T11:03:43.249Z,73.6
2018-01-15T11:04:43.913Z,72.7
2018-01-15T11:05:44.576Z,72.9
2018-01-15T11:06:45.240Z,72.8
2018-01-15T11:07:45.904Z,72.9
2018-01-15T11:08:46.571Z,73.2
2018-01-15T11:09:47.231Z,72.8
2018-01-15T11:10:47.894Z,72.8
2018-01-15T11:11:48.596Z,72.5
2018-01-15T11:12:49.216Z,73.3
2018-01-15T11:13:49.879Z,73.2
2018-01-15T11:14:50.543Z,73.1
2018-01-15T11:15:51.206Z,73.3
2018-01-15T11:16:51.870Z,73.7
2018-01-15T11:17:52.571Z,73.6
2018-01-15T11:18:53.197Z,73.7
2018-01-15T11:19:53.861Z,73.8
2018-01-15T11:20:54.525Z,73.9
2018-01-15T11:21:55.186Z,73.8
2018-01-15T11:22:55.850Z,73.6
2018-01-15T11:23:56.516Z,73.8
2018-01-15T11:24:57.180Z,74.2
2018-01-15T11:25:57.844Z,74.1
2018-01-15T11:26:58.507Z,73.9
2018-01-15T11:27:59.244Z,74.1
2018-01-15T11:28:59.835Z,73.7
2018-01-15T11:30:00.497Z,73.3
2018-01-15T11:31:01.161Z,73.2
2018-01-15T11:32:01.825Z,73.4
2018-01-15T11:33:02.490Z,73.3
2018-01-15T11:34:03.154Z,73.3
2018-01-15T11:35:03.815Z,73.5
2018-01-15T11:36:04.477Z,73.7
2018-01-15T11:37:05.141Z,73.7
2018-01-15T11:38:05.804Z,73.6
2018-01-15T11:39:06.467Z,74.0
2018-01-15T11:40:07.128Z,74.5
2018-01-15T11:41:07.791Z,74.2
2018-01-15T11:42:08.456Z,74.8
2018-01-15T11:43:09.117Z,74.5
2018-01-15T11:44:09.782Z,74.6
2018-01-15T11:45:10.445Z,74.6
2018-01-15T11:46:11.107Z,74.8
2018-01-15T11:47:11.767Z,74.6
2018-01-15T11:48:12.431Z,74.6
2018-01-15T11:49:13.098Z,74.5
2018-01-15T11:50:13.756Z,74.7
2018-01-15T11:51:14.419Z,74.6
2018-01-15T11:52:15.079Z,74.3
2018-01-15T11:53:15.741Z,74.2
2018-01-15T11:54:16.403Z,74.2
2018-01-15T11:55:17.067Z,74.6
2018-01-15T11:56:17.730Z,74.6
2018-01-15T11:57:18.395Z,74.1
2018-01-15T11:58:19.058Z,74.5
2018-01-15T11:59:19.722Z,74.8
2018-01-15T12:00:20.387Z,74.2
2018-01-15T12:01:21.051Z,74.3
2018-01-15T12:02:21.713Z,73.9
2018-01-15T12:03:22.377Z,73.7
2018-01-15T12:04:23.040Z,73.5
2018-01-15T12:05:23.707Z,73.3
2018-01-15T12:06:24.371Z,73.1
2018-01-15T12:07:25.033Z,73.2
2018-01-15T12:08:25.696Z,73.6
2018-01-15T12:09:26.357Z,73.9
2018-01-15T12:10:27.022Z,73.9
2018-01-15T12:11:27.688Z,74.1
2018-01-15T12:12:28.383Z,74.2
2018-01-15T12:13:29.077Z,74.3
2018-01-15T12:14:29.709Z,74.2
2018-01-15T12:15:30.374Z,74.0
2018-01-15T12:16:31.041Z,74.2
2018-01-15T12:17:31.706Z,74.2
2018-01-15T12:18:32.369Z,74.0
2018-01-15T12:19:33.040Z,74.0
2018-01-15T12:20:33.696Z,74.1
2018-01-15T12:21:34.395Z,74.0
2018-01-15T12:22:35.056Z,74.6
2018-01-15T12:23:35.720Z,74.8
2018-01-15T12:24:36.381Z,74.5
2018-01-15T12:25:37.081Z,74.5
2018-01-15T12:26:37.745Z,74.9
2018-01-15T12:27:38.409Z,74.7
2018-01-15T12:28:39.071Z,74.9
2018-01-15T12:29:39.736Z,74.9
2018-01-15T12:30:40.401Z,74.2
2018-01-15T12:31:41.066Z,74.2
2018-01-15T12:32:41.729Z,74.2
2018-01-15T12:33:42.393Z,74.0
2018-01-15T12:34:43.057Z,74.4
2018-01-15T12:35:43.720Z,74.2
2018-01-15T12:36:44.382Z,74.0
2018-01-15T12:37:45.044Z,74.0
2018-01-15T12:38:45.707Z,74.2
2018-01-15T12:39:46.371Z,74.0
2018-01-15T12:40:47.036Z,73.9
2018-01-15T12:41:47.702Z,73.9
2018-01-15T12:42:48.364Z,73.6
2018-01-15T12:43:49.029Z,73.6
2018-01-15T12:44:49.693Z,73.9
2018-01-15T12:45:50.356Z,73.9
2018-01-15T12:46:51.021Z,73.9
2018-01-15T12:47:51.689Z,73.6
2018-01-15T12:48:52.345Z,73.8
2018-01-15T12:49:53.009Z,73.8
2018-01-15T12:50:53.674Z,73.7
2018-01-15T12:51:54.378Z,74.3
2018-01-15T12:52:55.038Z,74.1
2018-01-15T12:53:55.699Z,74.2
2018-01-15T12:54:56.361Z,74.3
2018-01-15T12:55:57.025Z,74.0
2018-01-15T12:56:57.687Z,74.1
2018-01-15T12:57:58.355Z,74.7
2018-01-15T12:58:59.012Z,74.5
2018-01-15T12:59:59.674Z,74.5
2018-01-15T13:01:00.337Z,74.8
2018-01-15T13:02:01.040Z,74.5
2018-01-15T13:03:01.699Z,74.9
2018-01-15T13:04:02.362Z,74.5
2018-01-15T13:05:03.060Z,74.8
2018-01-15T13:06:03.722Z,75.1
2018-01-15T13:07:04.386Z,75.1
2018-01-15T13:08:05.084Z,75.2
2018-01-15T13:09:05.747Z,74.6
2018-01-15T13:10:06.411Z,74.5
2018-01-15T13:11:07.079Z,74.6
2018-01-15T13:12:07.739Z,74.8
2018-01-15T13:13:08.400Z,74.8
2018-01-15T13:14:09.065Z,75.2
2018-01-15T13:15:09.726Z,75.0
2018-01-15T13:16:10.390Z,75.2
2018-01-15T13:17:11.055Z,74.9
2018-01-15T13:18:11.715Z,74.8
2018-01-15T13:19:12.377Z,75.0
2018-01-15T13:20:13.044Z,75.0
2018-01-15T13:21:13.706Z,74.7
2018-01-15T13:22:14.403Z,74.6
2018-01-15T13:23:15.078Z,74.6
2018-01-15T13:24:15.741Z,74.5
2018-01-15T13:25:16.440Z,74.7
2018-01-15T13:26:17.103Z,74.8
2018-01-15T13:27:17.766Z,74.6